createdAt,value
2019-03-08T00:00:05.000Z,971.7
2019-03-08T00:00:42.000Z,971.7
2019-03-08T00:01:18.000Z,971.8
2019-03-08T00:01:54.000Z,971.8
2019-03-08T00:02:31.000Z,971.7
2019-03-08T00:03:07.000Z,971.8
2019-03-08T00:03:43.000Z,971.8
2019-03-08T00:04:20.000Z,971.8
2019-03-08T00:04:56.000Z,971.8
2019-03-08T00:05:32.000Z,971.8
2019-03-08T00:06:08.000Z,971.8
2019-03-08T00:06:45.000Z,971.9
2019-03-08T00:07:21.000Z,971.8
2019-03-08T00:07:57.000Z,971.9
2019-03-08T00:08:34.000Z,971.9
2019-03-08T00:09:10.000Z,971.9
2019-03-08T00:09:46.000Z,971.8
2019-03-08T00:10:23.000Z,971.9
2019-03-08T00:10:59.000Z,971.9
2019-03-08T00:11:35.000Z,971.9
2019-03-08T00:12:11.000Z,971.9
2019-03-08T00:12:48.000Z,971.9
2019-03-08T00:13:24.000Z,971.9
2019-03-08T00:14:01.000Z,971.9
2019-03-08T00:14:38.000Z,972.0
2019-03-08T00:15:14.000Z,971.9
2019-03-08T00:15:50.000Z,972.0
2019-03-08T00:16:26.000Z,971.9
2019-03-08T00:22:45.000Z,972.0
2019-03-08T00:23:21.000Z,972.1
2019-03-08T00:23:57.000Z,972.1
2019-03-08T00:24:34.000Z,972.1
2019-03-08T00:25:10.000Z,972.0
2019-03-08T00:25:46.000Z,972.1
2019-03-08T00:26:23.000Z,972.1
2019-03-08T00:26:59.000Z,972.1
2019-03-08T00:27:36.000Z,972.1
2019-03-08T00:28:12.000Z,972.1
2019-03-08T00:28:48.000Z,972.1
2019-03-08T00:29:24.000Z,972.1
2019-03-08T00:31:22.000Z,972.1
2019-03-08T00:31:59.000Z,972.1
2019-03-08T00:32:35.000Z,972.1
2019-03-08T00:33:12.000Z,972.1
2019-03-08T00:33:48.000Z,972.2
2019-03-08T00:34:24.000Z,972.2
2019-03-08T00:35:01.000Z,972.2
2019-03-08T00:35:37.000Z,972.2
2019-03-08T00:36:13.000Z,972.3
2019-03-08T00:36:49.000Z,972.2
2019-03-08T00:37:26.000Z,972.2
2019-03-08T00:38:02.000Z,972.3
2019-03-08T00:38:38.000Z,972.3
2019-03-08T00:39:15.000Z,972.3
2019-03-08T00:39:51.000Z,972.3
2019-03-08T00:40:27.000Z,972.4
2019-03-08T00:41:03.000Z,972.4
2019-03-08T00:41:40.000Z,972.4
2019-03-08T00:42:16.000Z,972.4
2019-03-08T00:42:52.000Z,972.4
2019-03-08T00:43:29.000Z,972.4
2019-03-08T00:44:05.000Z,972.4
2019-03-08T00:44:41.000Z,972.5
2019-03-08T00:45:18.000Z,972.4
2019-03-08T00:45:54.000Z,972.4
2019-03-08T00:46:30.000Z,972.4
2019-03-08T00:47:07.000Z,972.4
2019-03-08T00:47:43.000Z,972.4
2019-03-08T00:48:20.000Z,972.4
2019-03-08T00:48:56.000Z,972.5
2019-03-08T00:49:32.000Z,972.5
2019-03-08T00:50:08.000Z,972.5
2019-03-08T00:50:45.000Z,972.5
2019-03-08T00:51:21.000Z,972.5
2019-03-08T00:51:57.000Z,972.6
2019-03-08T00:52:34.000Z,972.5
2019-03-08T00:53:10.000Z,972.5
2019-03-08T00:53:46.000Z,972.5
2019-03-08T00:54:23.000Z,972.5
2019-03-08T00:54:59.000Z,972.5
2019-03-08T00:55:35.000Z,972.5
2019-03-08T00:56:11.000Z,972.5
2019-03-08T00:56:47.000Z,972.5
2019-03-08T00:57:24.000Z,972.5
2019-03-08T00:58:00.000Z,972.5
2019-03-08T00:58:36.000Z,972.6
2019-03-08T00:59:13.000Z,972.5
2019-03-08T00:59:49.000Z,972.5
2019-03-08T01:00:25.000Z,972.5
2019-03-08T01:01:01.000Z,972.6
2019-03-08T01:01:38.000Z,972.6
2019-03-08T01:02:14.000Z,972.5
2019-03-08T01:02:51.000Z,972.6
2019-03-08T01:03:27.000Z,972.5
2019-03-08T01:04:03.000Z,972.5
2019-03-08T01:04:40.000Z,972.5
2019-03-08T01:05:16.000Z,972.5
2019-03-08T01:05:52.000Z,972.6
2019-03-08T01:06:29.000Z,972.6
2019-03-08T01:07:05.000Z,972.6
2019-03-08T01:07:41.000Z,972.5
2019-03-08T01:08:18.000Z,972.6
2019-03-08T01:08:54.000Z,972.5
2019-03-08T01:09:30.000Z,972.5
2019-03-08T01:10:06.000Z,972.5
2019-03-08T01:10:43.000Z,972.5
2019-03-08T01:11:19.000Z,972.5
2019-03-08T01:11:55.000Z,972.5
2019-03-08T01:12:31.000Z,972.5
2019-03-08T01:13:08.000Z,972.5
2019-03-08T01:13:44.000Z,972.5
2019-03-08T01:14:21.000Z,972.6
2019-03-08T01:14:57.000Z,972.5
2019-03-08T01:15:33.000Z,972.5
2019-03-08T01:16:09.000Z,972.5
2019-03-08T01:16:46.000Z,972.6
2019-03-08T01:17:22.000Z,972.6
2019-03-08T01:17:58.000Z,972.6
2019-03-08T01:18:34.000Z,972.6
2019-03-08T01:19:11.000Z,972.5
2019-03-08T01:19:47.000Z,972.5
2019-03-08T01:20:23.000Z,972.5
2019-03-08T01:20:59.000Z,972.5
2019-03-08T01:21:36.000Z,972.5
2019-03-08T01:22:12.000Z,972.5
2019-03-08T01:22:48.000Z,972.5
2019-03-08T01:23:25.000Z,972.5
2019-03-08T01:24:01.000Z,972.5
2019-03-08T01:24:38.000Z,972.6
2019-03-08T01:25:14.000Z,972.5
2019-03-08T01:25:50.000Z,972.6
2019-03-08T01:26:26.000Z,972.5
2019-03-08T01:27:03.000Z,972.6
2019-03-08T01:27:39.000Z,972.6
2019-03-08T01:28:15.000Z,972.5
2019-03-08T01:28:52.000Z,972.6
2019-03-08T01:29:28.000Z,972.5
2019-03-08T01:30:04.000Z,972.5
2019-03-08T01:30:40.000Z,972.7
2019-03-08T01:31:17.000Z,972.6
2019-03-08T01:31:53.000Z,972.6
2019-03-08T01:32:29.000Z,972.6
2019-03-08T01:33:06.000Z,972.5
2019-03-08T01:33:42.000Z,972.6
2019-03-08T01:34:19.000Z,972.6
2019-03-08T01:34:55.000Z,972.6
2019-03-08T01:35:31.000Z,972.6
2019-03-08T01:36:08.000Z,972.6
2019-03-08T01:36:44.000Z,972.6
2019-03-08T01:37:20.000Z,972.6
2019-03-08T01:37:57.000Z,972.6
2019-03-08T01:38:33.000Z,972.6
2019-03-08T01:39:09.000Z,972.5
2019-03-08T01:39:45.000Z,972.6
2019-03-08T01:40:21.000Z,972.5
2019-03-08T01:40:57.000Z,972.6
2019-03-08T01:41:34.000Z,972.6
2019-03-08T01:42:10.000Z,972.6
2019-03-08T01:42:47.000Z,972.6
2019-03-08T01:43:23.000Z,972.7
2019-03-08T01:43:59.000Z,972.6
2019-03-08T01:44:36.000Z,972.6
2019-03-08T01:45:12.000Z,972.6
2019-03-08T01:45:48.000Z,972.6
2019-03-08T01:46:25.000Z,972.6
2019-03-08T01:47:01.000Z,972.7
2019-03-08T01:47:37.000Z,972.6
2019-03-08T01:48:13.000Z,972.7
2019-03-08T01:48:50.000Z,972.6
2019-03-08T01:49:26.000Z,972.6
2019-03-08T01:50:03.000Z,972.7
2019-03-08T01:50:39.000Z,972.7
2019-03-08T01:51:15.000Z,972.7
2019-03-08T01:51:52.000Z,972.7
2019-03-08T01:52:28.000Z,972.7
2019-03-08T01:53:04.000Z,972.7
2019-03-08T01:53:40.000Z,972.7
2019-03-08T01:54:17.000Z,972.7
2019-03-08T01:54:53.000Z,972.7
2019-03-08T01:55:29.000Z,972.7
2019-03-08T01:56:06.000Z,972.7
2019-03-08T01:56:43.000Z,972.7
2019-03-08T01:57:19.000Z,972.7
2019-03-08T01:57:55.000Z,972.7
2019-03-08T01:58:32.000Z,972.8
2019-03-08T01:59:08.000Z,972.8
2019-03-08T01:59:44.000Z,972.7
2019-03-08T02:00:21.000Z,972.8
2019-03-08T02:00:57.000Z,972.8
2019-03-08T02:01:33.000Z,972.8
2019-03-08T02:02:10.000Z,972.8
2019-03-08T02:02:46.000Z,972.8
2019-03-08T02:03:23.000Z,972.8
2019-03-08T02:03:59.000Z,972.8
2019-03-08T02:04:36.000Z,972.9
2019-03-08T02:05:12.000Z,972.8
2019-03-08T02:06:24.000Z,972.8
2019-03-08T02:07:01.000Z,972.9
2019-03-08T02:07:37.000Z,972.9
2019-03-08T02:08:13.000Z,972.9
2019-03-08T02:08:49.000Z,972.8
2019-03-08T02:09:26.000Z,972.8
2019-03-08T02:10:02.000Z,972.8
2019-03-08T02:10:39.000Z,972.9
2019-03-08T02:11:15.000Z,972.9
2019-03-08T02:11:51.000Z,972.8
2019-03-08T02:12:27.000Z,972.9
2019-03-08T02:13:04.000Z,972.9
2019-03-08T02:13:40.000Z,972.9
2019-03-08T02:14:17.000Z,972.9
2019-03-08T02:14:53.000Z,972.9
2019-03-08T02:15:29.000Z,972.8
2019-03-08T02:16:06.000Z,972.8
2019-03-08T02:16:42.000Z,972.9
2019-03-08T02:17:18.000Z,972.9
2019-03-08T02:17:55.000Z,972.8
2019-03-08T02:18:31.000Z,972.8
2019-03-08T02:19:07.000Z,972.9
2019-03-08T02:19:44.000Z,972.9
2019-03-08T02:20:20.000Z,972.9
2019-03-08T02:21:03.000Z,972.9
2019-03-08T02:21:45.000Z,972.8
2019-03-08T02:22:21.000Z,972.9
2019-03-08T02:23:00.000Z,972.9
2019-03-08T02:23:36.000Z,972.9
2019-03-08T02:24:12.000Z,972.9
2019-03-08T02:24:49.000Z,972.8
2019-03-08T02:25:25.000Z,972.8
2019-03-08T02:26:01.000Z,972.9
2019-03-08T02:26:37.000Z,972.9
2019-03-08T02:27:14.000Z,972.9
2019-03-08T02:27:50.000Z,972.8
2019-03-08T02:28:26.000Z,972.9
2019-03-08T02:29:03.000Z,972.9
2019-03-08T02:29:39.000Z,972.9
2019-03-08T02:30:16.000Z,972.9
2019-03-08T02:30:53.000Z,972.9
2019-03-08T02:31:29.000Z,972.9
2019-03-08T02:32:05.000Z,972.9
2019-03-08T02:32:42.000Z,972.9
2019-03-08T02:33:18.000Z,972.9
2019-03-08T02:33:54.000Z,972.9
2019-03-08T02:34:31.000Z,972.9
2019-03-08T02:35:07.000Z,972.9
2019-03-08T02:35:43.000Z,973.0
2019-03-08T02:36:19.000Z,973.0
2019-03-08T02:36:56.000Z,972.9
2019-03-08T02:37:32.000Z,973.0
2019-03-08T02:38:12.000Z,972.9
2019-03-08T02:38:48.000Z,973.0
2019-03-08T02:39:25.000Z,972.9
2019-03-08T02:40:01.000Z,973.0
2019-03-08T02:40:38.000Z,972.9
2019-03-08T02:41:14.000Z,973.0
2019-03-08T02:41:50.000Z,972.9
2019-03-08T02:42:26.000Z,973.0
2019-03-08T02:43:03.000Z,973.0
2019-03-08T02:43:39.000Z,973.0
2019-03-08T02:44:15.000Z,972.9
2019-03-08T02:44:51.000Z,973.0
2019-03-08T02:45:28.000Z,973.0
2019-03-08T02:46:04.000Z,973.0
2019-03-08T02:46:40.000Z,973.0
2019-03-08T02:47:16.000Z,973.0
2019-03-08T02:47:53.000Z,973.0
2019-03-08T02:48:29.000Z,973.0
2019-03-08T02:49:06.000Z,973.0
2019-03-08T02:49:42.000Z,972.9
2019-03-08T02:50:18.000Z,972.9
2019-03-08T02:50:55.000Z,973.0
2019-03-08T02:51:31.000Z,973.0
2019-03-08T02:52:07.000Z,973.1
2019-03-08T02:52:43.000Z,973.0
2019-03-08T02:53:19.000Z,973.0
2019-03-08T02:53:56.000Z,973.1
2019-03-08T02:54:32.000Z,973.0
2019-03-08T02:55:11.000Z,973.1
2019-03-08T02:55:47.000Z,973.0
2019-03-08T02:56:23.000Z,973.1
2019-03-08T02:56:59.000Z,973.1
2019-03-08T02:57:35.000Z,973.1
2019-03-08T02:58:12.000Z,973.1
2019-03-08T02:58:48.000Z,973.1
2019-03-08T02:59:25.000Z,973.1
2019-03-08T03:00:01.000Z,973.1
2019-03-08T03:00:37.000Z,973.1
2019-03-08T03:01:13.000Z,973.1
2019-03-08T03:01:50.000Z,973.1
2019-03-08T03:02:26.000Z,973.1
2019-03-08T03:03:03.000Z,973.1
2019-03-08T03:03:39.000Z,973.2
2019-03-08T03:04:15.000Z,973.1
2019-03-08T03:04:51.000Z,973.2
2019-03-08T03:05:27.000Z,973.1
2019-03-08T03:06:04.000Z,973.1
2019-03-08T03:06:40.000Z,973.2
2019-03-08T03:07:16.000Z,973.1
2019-03-08T03:07:53.000Z,973.2
2019-03-08T03:08:29.000Z,973.2
2019-03-08T03:09:06.000Z,973.2
2019-03-08T03:09:42.000Z,973.2
2019-03-08T03:10:18.000Z,973.2
2019-03-08T03:10:55.000Z,973.2
2019-03-08T03:11:31.000Z,973.3
2019-03-08T03:12:07.000Z,973.2
2019-03-08T03:12:44.000Z,973.2
2019-03-08T03:13:20.000Z,973.2
2019-03-08T03:13:56.000Z,973.2
2019-03-08T03:14:33.000Z,973.3
2019-03-08T03:15:09.000Z,973.3
2019-03-08T03:15:45.000Z,973.3
2019-03-08T03:16:21.000Z,973.2
2019-03-08T03:16:58.000Z,973.3
2019-03-08T03:17:34.000Z,973.2
2019-03-08T03:18:11.000Z,973.3
2019-03-08T03:18:49.000Z,973.2
2019-03-08T03:19:25.000Z,973.3
2019-03-08T03:20:02.000Z,973.2
2019-03-08T03:20:38.000Z,973.2
2019-03-08T03:21:14.000Z,973.2
2019-03-08T03:21:51.000Z,973.2
2019-03-08T03:22:27.000Z,973.2
2019-03-08T03:23:03.000Z,973.2
2019-03-08T03:23:40.000Z,973.2
2019-03-08T03:24:16.000Z,973.2
2019-03-08T03:24:52.000Z,973.2
2019-03-08T03:25:29.000Z,973.2
2019-03-08T03:26:05.000Z,973.3
2019-03-08T03:26:41.000Z,973.2
2019-03-08T03:27:18.000Z,973.2
2019-03-08T03:27:54.000Z,973.2
2019-03-08T03:28:31.000Z,973.2
2019-03-08T03:29:07.000Z,973.2
2019-03-08T03:29:43.000Z,973.2
2019-03-08T03:30:20.000Z,973.2
2019-03-08T03:30:56.000Z,973.3
2019-03-08T03:31:32.000Z,973.3
2019-03-08T03:32:09.000Z,973.3
2019-03-08T03:32:45.000Z,973.2
2019-03-08T03:33:21.000Z,973.3
2019-03-08T03:33:58.000Z,973.3
2019-03-08T03:34:34.000Z,973.4
2019-03-08T03:35:10.000Z,973.3
2019-03-08T03:35:46.000Z,973.3
2019-03-08T03:36:23.000Z,973.3
2019-03-08T03:36:59.000Z,973.2
2019-03-08T03:37:35.000Z,973.3
2019-03-08T03:38:12.000Z,973.2
2019-03-08T03:38:48.000Z,973.3
2019-03-08T03:39:25.000Z,973.3
2019-03-08T03:40:01.000Z,973.3
2019-03-08T03:40:37.000Z,973.3
2019-03-08T03:41:14.000Z,973.3
2019-03-08T03:41:50.000Z,973.3
2019-03-08T03:42:26.000Z,973.3
2019-03-08T03:43:03.000Z,973.3
2019-03-08T03:43:39.000Z,973.4
2019-03-08T03:44:15.000Z,973.4
2019-03-08T03:44:51.000Z,973.4
2019-03-08T03:45:28.000Z,973.4
2019-03-08T03:46:04.000Z,973.4
2019-03-08T03:46:40.000Z,973.4
2019-03-08T03:47:17.000Z,973.4
2019-03-08T03:47:53.000Z,973.4
2019-03-08T03:48:30.000Z,973.3
2019-03-08T03:49:06.000Z,973.3
2019-03-08T03:49:42.000Z,973.3
2019-03-08T03:50:19.000Z,973.4
2019-03-08T03:50:55.000Z,973.3
2019-03-08T03:51:31.000Z,973.4
2019-03-08T03:52:08.000Z,973.3
2019-03-08T03:52:44.000Z,973.4
2019-03-08T03:53:20.000Z,973.4
2019-03-08T03:53:57.000Z,973.4
2019-03-08T03:54:33.000Z,973.4
2019-03-08T03:55:09.000Z,973.4
2019-03-08T03:55:46.000Z,973.4
2019-03-08T03:56:22.000Z,973.4
2019-03-08T03:56:58.000Z,973.4
2019-03-08T03:57:34.000Z,973.4
2019-03-08T03:58:11.000Z,973.4
2019-03-08T03:58:47.000Z,973.4
2019-03-08T03:59:24.000Z,973.4
2019-03-08T04:00:00.000Z,973.4
2019-03-08T04:00:36.000Z,973.3
2019-03-08T04:01:13.000Z,973.4
2019-03-08T04:01:49.000Z,973.4
2019-03-08T04:02:25.000Z,973.4
2019-03-08T04:03:02.000Z,973.4
2019-03-08T04:03:38.000Z,973.4
2019-03-08T04:04:15.000Z,973.4
2019-03-08T04:04:51.000Z,973.4
2019-03-08T04:05:28.000Z,973.4
2019-03-08T04:06:04.000Z,973.4
2019-03-08T04:06:40.000Z,973.4
2019-03-08T04:07:16.000Z,973.5
2019-03-08T04:07:53.000Z,973.4
2019-03-08T04:08:29.000Z,973.4
2019-03-08T04:09:05.000Z,973.4
2019-03-08T04:09:42.000Z,973.4
2019-03-08T04:10:18.000Z,973.4
2019-03-08T04:10:54.000Z,973.5
2019-03-08T04:11:31.000Z,973.5
2019-03-08T04:12:07.000Z,973.5
2019-03-08T04:12:43.000Z,973.5
2019-03-08T04:13:20.000Z,973.4
2019-03-08T04:13:56.000Z,973.5
2019-03-08T04:14:32.000Z,973.5
2019-03-08T04:15:08.000Z,973.5
2019-03-08T04:15:45.000Z,973.5
2019-03-08T04:16:21.000Z,973.5
2019-03-08T04:16:57.000Z,973.6
2019-03-08T04:17:33.000Z,973.6
2019-03-08T04:18:10.000Z,973.6
2019-03-08T04:18:46.000Z,973.6
2019-03-08T04:19:22.000Z,973.6
2019-03-08T04:19:58.000Z,973.6
2019-03-08T04:20:35.000Z,973.6
2019-03-08T04:21:11.000Z,973.6
2019-03-08T04:21:47.000Z,973.6
2019-03-08T04:22:23.000Z,973.6
2019-03-08T04:23:00.000Z,973.7
2019-03-08T04:23:36.000Z,973.7
2019-03-08T04:24:12.000Z,973.7
2019-03-08T04:24:49.000Z,973.7
2019-03-08T04:25:25.000Z,973.7
2019-03-08T04:26:01.000Z,973.7
2019-03-08T04:26:38.000Z,973.8
2019-03-08T04:27:14.000Z,973.8
2019-03-08T04:27:50.000Z,973.7
2019-03-08T04:28:27.000Z,973.8
2019-03-08T04:29:03.000Z,973.8
2019-03-08T04:29:40.000Z,973.8
2019-03-08T04:30:16.000Z,973.8
2019-03-08T04:30:53.000Z,973.9
2019-03-08T04:31:29.000Z,973.9
2019-03-08T04:32:06.000Z,973.9
2019-03-08T04:32:42.000Z,973.9
2019-03-08T04:33:18.000Z,973.9
2019-03-08T04:33:54.000Z,973.9
2019-03-08T04:34:31.000Z,973.9
2019-03-08T04:35:07.000Z,973.9
2019-03-08T04:35:43.000Z,973.9
2019-03-08T04:36:19.000Z,973.9
2019-03-08T04:36:56.000Z,973.9
2019-03-08T04:37:32.000Z,974.0
2019-03-08T04:38:08.000Z,974.0
2019-03-08T04:38:45.000Z,974.0
2019-03-08T04:39:21.000Z,973.9
2019-03-08T04:39:58.000Z,974.0
2019-03-08T04:40:34.000Z,973.9
2019-03-08T04:41:11.000Z,973.9
2019-03-08T04:41:47.000Z,973.9
2019-03-08T04:42:23.000Z,973.9
2019-03-08T04:42:59.000Z,974.0
2019-03-08T04:43:36.000Z,973.9
2019-03-08T04:44:12.000Z,974.0
2019-03-08T04:44:48.000Z,974.0
2019-03-08T04:45:24.000Z,974.0
2019-03-08T04:46:01.000Z,974.1
2019-03-08T04:46:37.000Z,974.0
2019-03-08T04:47:13.000Z,974.0
2019-03-08T04:47:49.000Z,974.0
2019-03-08T04:48:26.000Z,974.0
2019-03-08T04:49:02.000Z,974.1
2019-03-08T04:49:38.000Z,974.0
2019-03-08T04:50:15.000Z,974.1
2019-03-08T04:50:52.000Z,974.0
2019-03-08T04:51:28.000Z,974.0
2019-03-08T04:52:05.000Z,974.1
2019-03-08T04:52:41.000Z,974.1
2019-03-08T04:53:17.000Z,974.0
2019-03-08T04:53:54.000Z,974.1
2019-03-08T04:54:30.000Z,974.1
2019-03-08T04:55:07.000Z,974.1
2019-03-08T04:55:43.000Z,974.1
2019-03-08T04:56:19.000Z,974.1
2019-03-08T04:56:55.000Z,974.1
2019-03-08T04:57:32.000Z,974.2
2019-03-08T04:58:08.000Z,974.1
2019-03-08T04:58:44.000Z,974.1
2019-03-08T04:59:21.000Z,974.2
2019-03-08T04:59:57.000Z,974.2
2019-03-08T05:00:33.000Z,974.2
2019-03-08T05:01:10.000Z,974.2
2019-03-08T05:01:46.000Z,974.1
2019-03-08T05:02:22.000Z,974.2
2019-03-08T05:02:58.000Z,974.1
2019-03-08T05:03:35.000Z,974.2
2019-03-08T05:04:11.000Z,974.2
2019-03-08T05:04:47.000Z,974.3
2019-03-08T05:05:23.000Z,974.3
2019-03-08T05:06:00.000Z,974.3
2019-03-08T05:06:37.000Z,974.3
2019-03-08T05:07:13.000Z,974.3
2019-03-08T05:07:49.000Z,974.4
2019-03-08T05:08:25.000Z,974.4
2019-03-08T05:09:02.000Z,974.3
2019-03-08T05:09:38.000Z,974.4
2019-03-08T05:10:15.000Z,974.4
2019-03-08T05:10:51.000Z,974.4
2019-03-08T05:11:27.000Z,974.4
2019-03-08T05:12:03.000Z,974.4
2019-03-08T05:12:40.000Z,974.4
2019-03-08T05:13:16.000Z,974.4
2019-03-08T05:13:52.000Z,974.5
2019-03-08T05:14:28.000Z,974.4
2019-03-08T05:15:05.000Z,974.4
2019-03-08T05:15:41.000Z,974.5
2019-03-08T05:16:17.000Z,974.4
2019-03-08T05:16:53.000Z,974.5
2019-03-08T05:17:29.000Z,974.5
2019-03-08T05:18:06.000Z,974.6
2019-03-08T05:18:42.000Z,974.5
2019-03-08T05:19:18.000Z,974.6
2019-03-08T05:19:55.000Z,974.6
2019-03-08T05:20:31.000Z,974.6
2019-03-08T05:21:07.000Z,974.6
2019-03-08T05:21:44.000Z,974.6
2019-03-08T05:22:20.000Z,974.6
2019-03-08T05:22:56.000Z,974.6
2019-03-08T05:23:33.000Z,974.6
2019-03-08T05:24:09.000Z,974.6
2019-03-08T05:24:45.000Z,974.6
2019-03-08T05:25:22.000Z,974.6
2019-03-08T05:25:58.000Z,974.6
2019-03-08T05:26:34.000Z,974.6
2019-03-08T05:27:10.000Z,974.6
2019-03-08T05:27:47.000Z,974.6
2019-03-08T05:28:23.000Z,974.6
2019-03-08T05:28:59.000Z,974.6
2019-03-08T05:29:36.000Z,974.6
2019-03-08T05:30:12.000Z,974.7
2019-03-08T05:30:49.000Z,974.7
2019-03-08T05:31:25.000Z,974.7
2019-03-08T05:32:02.000Z,974.7
2019-03-08T05:32:38.000Z,974.7
2019-03-08T05:33:14.000Z,974.7
2019-03-08T05:33:51.000Z,974.7
2019-03-08T05:34:27.000Z,974.7
2019-03-08T05:35:03.000Z,974.7
2019-03-08T05:35:39.000Z,974.7
2019-03-08T05:36:16.000Z,974.7
2019-03-08T05:36:52.000Z,974.7
2019-03-08T05:37:28.000Z,974.6
2019-03-08T09:23:54.000Z,977.9
2019-03-08T09:29:52.000Z,978.0
2019-03-08T09:30:30.000Z,978.0
2019-03-08T09:36:43.000Z,977.9
2019-03-08T09:48:26.000Z,978.0
2019-03-08T09:48:58.000Z,978.0
2019-03-08T09:49:30.000Z,978.0
2019-03-08T09:54:32.000Z,977.8
2019-03-08T09:59:51.000Z,978.0
2019-03-08T10:07:10.000Z,978.0
2019-03-08T10:07:39.000Z,978.1
2019-03-08T10:08:18.000Z,978.1
2019-03-08T10:17:32.000Z,978.3
2019-03-08T10:17:58.000Z,978.2
2019-03-08T10:18:24.000Z,978.3
2019-03-08T10:18:50.000Z,978.3
2019-03-08T10:21:38.000Z,978.2
2019-03-08T10:27:27.000Z,976.6
2019-03-08T10:28:02.000Z,978.4
2019-03-08T10:28:37.000Z,978.3
2019-03-08T10:29:14.000Z,978.4
2019-03-08T10:29:48.000Z,978.3
2019-03-08T10:30:23.000Z,978.3
2019-03-08T10:30:59.000Z,978.4
2019-03-08T10:34:31.000Z,978.4
2019-03-08T10:34:59.000Z,978.6
2019-03-08T10:35:28.000Z,978.6
2019-03-08T10:35:55.000Z,978.5
2019-03-08T10:36:22.000Z,978.5
2019-03-08T10:36:49.000Z,978.5
2019-03-08T10:37:16.000Z,978.5
2019-03-08T10:37:43.000Z,978.5
2019-03-08T10:38:10.000Z,978.5
2019-03-08T10:38:37.000Z,978.6
2019-03-08T10:39:04.000Z,978.5
2019-03-08T10:39:31.000Z,978.5
2019-03-08T10:39:58.000Z,978.5
2019-03-08T10:40:25.000Z,978.6
2019-03-08T10:40:52.000Z,978.5
2019-03-08T10:45:52.000Z,978.6
2019-03-08T10:46:18.000Z,978.7
2019-03-08T10:46:44.000Z,978.6
2019-03-08T10:49:06.000Z,978.6
2019-03-08T10:55:36.000Z,978.6
2019-03-08T10:56:04.000Z,978.8
2019-03-08T10:56:32.000Z,978.8
2019-03-08T10:57:00.000Z,978.8
2019-03-08T10:57:28.000Z,978.9
2019-03-08T10:58:32.000Z,978.8
2019-03-08T10:59:00.000Z,978.8
2019-03-08T10:59:28.000Z,978.7
2019-03-08T10:59:57.000Z,978.7
2019-03-08T11:00:25.000Z,978.8
2019-03-08T11:00:53.000Z,978.8
2019-03-08T11:01:21.000Z,978.7
2019-03-08T11:02:34.000Z,978.8
2019-03-08T11:03:02.000Z,978.8
2019-03-08T11:04:07.000Z,978.9
2019-03-08T11:04:35.000Z,978.7
2019-03-08T11:05:03.000Z,978.8
2019-03-08T11:05:31.000Z,978.7
2019-03-08T11:05:59.000Z,978.7
2019-03-08T11:06:27.000Z,978.7
2019-03-08T11:06:55.000Z,978.8
2019-03-08T11:07:23.000Z,978.8
2019-03-08T11:07:51.000Z,978.8
2019-03-08T11:08:19.000Z,978.8
2019-03-08T11:09:24.000Z,978.8
2019-03-08T11:10:38.000Z,978.9
2019-03-08T11:11:06.000Z,978.9
2019-03-08T11:12:10.000Z,978.8
2019-03-08T11:12:38.000Z,978.9
2019-03-08T11:13:06.000Z,978.8
2019-03-08T11:14:10.000Z,979.0
2019-03-08T11:15:15.000Z,979.0
2019-03-08T11:16:19.000Z,978.9
2019-03-08T11:16:48.000Z,978.9
2019-03-08T11:17:16.000Z,979.0
2019-03-08T11:17:44.000Z,978.9
2019-03-08T11:18:49.000Z,979.0
2019-03-08T11:19:17.000Z,979.1
2019-03-08T11:19:45.000Z,979.0
2019-03-08T11:20:13.000Z,979.1
2019-03-08T11:21:16.000Z,979.0
2019-03-08T11:21:44.000Z,979.0
2019-03-08T11:22:12.000Z,979.1
2019-03-08T11:22:40.000Z,979.1
2019-03-08T11:23:07.000Z,979.1
2019-03-08T11:23:33.000Z,979.1
2019-03-08T11:24:00.000Z,979.1
2019-03-08T11:24:26.000Z,979.1
2019-03-08T11:24:52.000Z,979.2
2019-03-08T11:25:30.000Z,979.1
2019-03-08T11:25:55.000Z,979.2
2019-03-08T11:26:21.000Z,979.1
2019-03-08T11:26:48.000Z,979.2
2019-03-08T11:27:25.000Z,979.2
2019-03-08T11:27:51.000Z,979.1
2019-03-08T11:29:13.000Z,979.2
2019-03-08T11:29:39.000Z,979.2
2019-03-08T11:30:05.000Z,979.2
2019-03-08T11:30:31.000Z,979.1
2019-03-08T11:30:58.000Z,979.2
2019-03-08T11:31:25.000Z,979.2
2019-03-08T11:31:51.000Z,979.2
2019-03-08T11:32:23.000Z,979.2
2019-03-08T11:32:50.000Z,979.2
2019-03-08T11:33:16.000Z,979.2
2019-03-08T11:33:44.000Z,979.2
2019-03-08T11:34:11.000Z,979.3
2019-03-08T11:34:37.000Z,979.3
2019-03-08T11:34:59.000Z,979.2
2019-03-08T11:35:26.000Z,979.3
2019-03-08T11:35:53.000Z,979.3
2019-03-08T11:36:21.000Z,979.2
2019-03-08T11:36:49.000Z,979.3
2019-03-08T11:37:16.000Z,979.3
2019-03-08T11:37:42.000Z,979.3
2019-03-08T11:38:07.000Z,979.3
2019-03-08T11:39:20.000Z,979.1
2019-03-08T11:39:47.000Z,979.3
2019-03-08T11:40:13.000Z,979.2
2019-03-08T11:40:41.000Z,979.3
2019-03-08T11:41:07.000Z,979.3
2019-03-08T11:41:33.000Z,979.3
2019-03-08T11:41:59.000Z,979.2
2019-03-08T11:42:26.000Z,979.4
2019-03-08T11:42:52.000Z,979.3
2019-03-08T11:43:18.000Z,979.2
2019-03-08T11:43:44.000Z,979.2
2019-03-08T11:44:10.000Z,979.3
2019-03-08T11:44:36.000Z,979.3
2019-03-08T11:45:26.000Z,979.3
2019-03-08T11:45:52.000Z,979.3
2019-03-08T11:46:19.000Z,979.2
2019-03-08T11:46:45.000Z,979.3
2019-03-08T11:47:12.000Z,979.4
2019-03-08T11:47:38.000Z,979.3
2019-03-08T11:48:04.000Z,979.4
2019-03-08T11:48:30.000Z,979.3
2019-03-08T11:48:56.000Z,979.3
2019-03-08T11:49:22.000Z,979.3
2019-03-08T11:49:48.000Z,979.2
2019-03-08T11:50:15.000Z,979.3
2019-03-08T11:50:42.000Z,979.2
2019-03-08T11:51:08.000Z,979.2
2019-03-08T11:51:34.000Z,979.2
2019-03-08T11:52:01.000Z,979.3
2019-03-08T11:52:27.000Z,979.3
2019-03-08T11:52:53.000Z,979.1
2019-03-08T11:53:19.000Z,979.3
2019-03-08T11:53:45.000Z,979.3
2019-03-08T11:54:12.000Z,979.2
2019-03-08T11:54:40.000Z,979.2
2019-03-08T11:55:07.000Z,979.2
2019-03-08T11:55:33.000Z,979.2
2019-03-08T11:55:59.000Z,979.3
2019-03-08T11:56:25.000Z,979.3
2019-03-08T11:56:56.000Z,979.2
2019-03-08T11:57:23.000Z,979.2
2019-03-08T11:57:49.000Z,979.3
2019-03-08T12:01:26.000Z,979.3
2019-03-08T12:01:53.000Z,979.4
2019-03-08T12:02:21.000Z,979.4
2019-03-08T12:04:04.000Z,979.3
2019-03-08T12:04:31.000Z,979.3
2019-03-08T12:04:58.000Z,979.2
2019-03-08T12:05:24.000Z,979.3
2019-03-08T12:05:50.000Z,979.3
2019-03-08T12:06:17.000Z,979.3
2019-03-08T12:06:44.000Z,979.2
2019-03-08T12:07:10.000Z,979.2
2019-03-08T12:07:37.000Z,979.2
2019-03-08T12:08:04.000Z,979.3
2019-03-08T12:08:30.000Z,979.2
2019-03-08T12:08:57.000Z,979.3
2019-03-08T12:09:23.000Z,979.2
2019-03-08T12:09:49.000Z,979.2
2019-03-08T12:10:16.000Z,979.3
2019-03-08T12:10:42.000Z,979.3
2019-03-08T12:11:09.000Z,979.2
2019-03-08T12:11:35.000Z,979.2
2019-03-08T12:12:01.000Z,979.3
2019-03-08T12:12:27.000Z,979.2
2019-03-08T12:12:54.000Z,979.1
2019-03-08T12:13:20.000Z,979.1
2019-03-08T12:13:47.000Z,979.2
2019-03-08T12:14:13.000Z,979.2
2019-03-08T12:14:39.000Z,979.1
2019-03-08T12:15:05.000Z,979.2
2019-03-08T12:17:23.000Z,979.2
2019-03-08T12:17:49.000Z,979.1
2019-03-08T12:19:50.000Z,979.2
2019-03-08T12:22:23.000Z,979.1
2019-03-08T12:22:50.000Z,979.1
2019-03-08T12:23:16.000Z,979.1
2019-03-08T12:23:44.000Z,979.1
2019-03-08T12:24:10.000Z,979.1
2019-03-08T12:25:28.000Z,979.1
2019-03-08T12:25:55.000Z,979.2
2019-03-08T15:27:00.000Z,976.1
2019-03-08T15:38:15.000Z,976.1
2019-03-08T15:38:44.000Z,976.1
2019-03-08T15:39:22.000Z,976.1
2019-03-08T15:39:50.000Z,976.2
